Time;durP1;ratioP1;P1;durP2;ratioP2;P2;SDS_P1;SDS_P2;PMS_P1;PMS_P2;Temp;Humidity;BMP_temperature;BMP_pressure;BME280_temperature;BME280_humidity;BME280_pressure;Samples;Min_cycle;Max_cycle;Signal;HPM_P1;HPM_P2
2023/10/12 00:00:27;;;;;;;4.27;3.43;;;21.00;61.00;;;;;;5010490;28;20443;-50
2023/10/12 00:02:59;;;;;;;5.80;3.60;;;21.00;60.90;;;;;;5018599;28;20812;-50
2023/10/12 00:05:29;;;;;;;4.00;3.60;;;21.00;60.90;;;;;;5021602;28;20953;-51
2023/10/12 00:07:57;;;;;;;5.90;3.90;;;21.00;60.90;;;;;;5026810;28;20459;-49
2023/10/12 00:10:37;;;;;;;5.60;3.50;;;21.00;60.90;;;;;;5013164;28;20446;-51
2023/10/12 00:13:06;;;;;;;4.60;4.13;;;21.00;60.80;;;;;;5034060;28;20427;-51
2023/10/12 00:15:39;;;;;;;4.33;3.53;;;21.00;60.80;;;;;;5030767;28;20466;-51
2023/10/12 00:18:09;;;;;;;4.80;3.87;;;21.00;60.90;;;;;;5034402;28;20428;-51
2023/10/12 00:20:38;;;;;;;3.73;3.30;;;21.00;60.80;;;;;;5036256;28;21346;-50
2023/10/12 00:23:20;;;;;;;3.70;3.40;;;21.00;60.80;;;;;;5035945;28;20443;-50
2023/10/12 00:25:54;;;;;;;4.80;4.30;;;21.00;60.80;;;;;;5031662;28;20996;-51
2023/10/12 00:28:29;;;;;;;5.00;3.40;;;21.00;60.80;;;;;;5028122;28;20979;-50
2023/10/12 00:30:57;;;;;;;4.10;3.70;;;21.00;60.80;;;;;;5024720;28;20472;-51
2023/10/12 00:33:27;;;;;;;4.33;3.63;;;21.00;60.60;;;;;;5044999;28;20948;-51
2023/10/12 00:36:00;;;;;;;5.20;4.00;;;20.90;60.50;;;;;;5032780;28;20527;-50
2023/10/12 00:38:30;;;;;;;5.27;4.00;;;21.00;60.70;;;;;;5031156;28;20506;-51
2023/10/12 00:41:03;;;;;;;5.70;3.80;;;21.00;60.90;;;;;;5037095;28;20472;-50
2023/10/12 00:43:35;;;;;;;6.90;3.53;;;21.00;60.70;;;;;;5040524;28;20482;-50
2023/10/12 00:46:16;;;;;;;5.73;4.20;;;20.90;60.60;;;;;;5034280;28;20479;-51
2023/10/12 00:48:50;;;;;;;4.53;3.60;;;20.90;60.60;;;;;;5034030;28;20524;-50
2023/10/12 00:51:19;;;;;;;7.37;3.93;;;21.00;60.70;;;;;;5035735;28;20555;-51
2023/10/12 00:53:55;;;;;;;6.87;3.77;;;20.90;61.10;;;;;;5035354;28;20498;-50
2023/10/12 00:56:25;;;;;;;4.80;4.03;;;21.00;60.90;;;;;;5035235;28;20633;-50
2023/10/12 00:58:55;;;;;;;6.40;3.60;;;21.00;60.90;;;;;;5031760;28;20451;-51
2023/10/12 01:01:24;;;;;;;5.90;3.80;;;20.90;60.80;;;;;;5031870;28;20840;-51
2023/10/12 01:03:53;;;;;;;6.50;3.40;;;20.90;60.70;;;;;;5042811;28;20520;-50
2023/10/12 01:09:18;;;;;;;6.73;4.03;;;20.90;60.60;;;;;;5035462;28;20822;-50
2023/10/12 01:11:57;;;;;;;4.27;3.70;;;20.90;60.60;;;;;;5036521;28;20470;-49
2023/10/12 01:14:28;;;;;;;7.50;4.07;;;20.90;60.60;;;;;;5032411;28;20469;-51
2023/10/12 01:16:58;;;;;;;3.70;3.30;;;20.90;60.70;;;;;;5033130;28;20495;-48
2023/10/12 01:19:33;;;;;;;6.57;3.40;;;20.90;60.60;;;;;;5030328;28;20427;-51
2023/10/12 01:22:11;;;;;;;4.43;3.40;;;20.90;60.60;;;;;;5034478;28;20466;-51
2023/10/12 01:24:47;;;;;;;5.40;4.07;;;20.90;60.50;;;;;;5030995;28;20471;-51
2023/10/12 01:27:26;;;;;;;5.80;3.87;;;20.90;60.50;;;;;;5024650;28;20468;-50
2023/10/12 01:30:11;;;;;;;6.23;4.47;;;20.90;60.50;;;;;;5029463;28;20473;-50
2023/10/12 01:32:40;;;;;;;4.20;3.40;;;20.90;60.50;;;;;;5049008;28;20456;-50
2023/10/12 01:35:11;;;;;;;5.10;4.43;;;20.90;60.50;;;;;;5034859;28;20460;-51
2023/10/12 01:37:48;;;;;;;5.43;4.17;;;20.90;60.60;;;;;;5036504;28;20447;-49
2023/10/12 01:40:21;;;;;;;4.57;3.70;;;20.90;60.60;;;;;;5035794;28;20899;-49
2023/10/12 01:42:56;;;;;;;5.43;3.70;;;20.90;60.70;;;;;;5036968;28;20467;-51
2023/10/12 01:45:41;;;;;;;7.47;4.53;;;20.90;60.80;;;;;;5034464;28;20656;-51
2023/10/12 01:48:16;;;;;;;7.37;3.57;;;20.90;60.80;;;;;;5034504;28;20448;-51
2023/10/12 01:50:46;;;;;;;7.63;4.70;;;20.90;60.70;;;;;;5038544;28;20878;-50
2023/10/12 01:53:29;;;;;;;4.40;3.63;;;20.90;60.70;;;;;;5028573;28;20815;-51
2023/10/12 01:55:59;;;;;;;4.20;3.80;;;20.90;60.70;;;;;;5033633;28;21058;-50
2023/10/12 01:58:28;;;;;;;4.53;3.90;;;20.90;60.70;;;;;;5034100;28;20479;-50
2023/10/12 02:01:05;;;;;;;6.63;3.33;;;20.90;60.70;;;;;;5030340;28;20458;-50
2023/10/12 02:03:42;;;;;;;4.80;3.60;;;20.90;60.80;;;;;;5034893;28;20443;-51
2023/10/12 02:06:16;;;;;;;4.93;4.20;;;20.90;60.90;;;;;;5025729;28;21020;-51
2023/10/12 02:08:52;;;;;;;4.53;3.80;;;20.90;60.90;;;;;;5028596;28;20941;-50
2023/10/12 02:11:38;;;;;;;6.57;3.90;;;20.90;60.70;;;;;;5027575;28;20821;-51
2023/10/12 02:14:10;;;;;;;6.60;4.53;;;20.90;60.90;;;;;;5028827;28;20487;-51
2023/10/12 02:16:38;;;;;;;4.57;3.70;;;20.90;60.90;;;;;;5027433;28;20507;-49
2023/10/12 02:19:08;;;;;;;4.40;3.73;;;20.90;61.00;;;;;;5043813;28;20870;-51
2023/10/12 02:21:40;;;;;;;4.80;3.37;;;20.90;61.00;;;;;;5027781;28;20483;-50
2023/10/12 02:24:14;;;;;;;5.00;4.00;;;20.90;60.90;;;;;;5034852;28;20542;-50
2023/10/12 02:26:52;;;;;;;4.73;3.80;;;20.90;61.00;;;;;;5027251;28;20564;-51
2023/10/12 02:29:21;;;;;;;5.17;3.63;;;20.90;61.10;;;;;;5034587;28;20470;-50
2023/10/12 02:31:58;;;;;;;4.20;3.80;;;20.90;61.00;;;;;;5031178;28;20487;-50
2023/10/12 02:34:29;;;;;;;5.37;3.80;;;20.90;61.00;;;;;;5036871;28;20532;-50
2023/10/12 02:37:16;;;;;;;4.73;3.70;;;20.90;61.00;;;;;;5030926;28;20477;-51
2023/10/12 02:39:48;;;;;;;4.63;4.23;;;20.90;61.10;;;;;;5040269;28;20455;-50
2023/10/12 02:42:22;;;;;;;4.57;3.43;;;20.90;61.20;;;;;;5034343;28;20479;-51
2023/10/12 02:45:09;;;;;;;4.80;4.03;;;20.90;61.20;;;;;;5035802;28;20893;-51
2023/10/12 02:47:42;;;;;;;4.33;3.93;;;20.90;61.30;;;;;;5037328;28;20497;-50
2023/10/12 02:50:27;;;;;;;3.90;3.23;;;20.90;61.20;;;;;;5035687;28;20440;-51
2023/10/12 02:52:55;;;;;;;3.87;3.47;;;20.90;61.30;;;;;;5027251;28;20474;-51
2023/10/12 02:55:40;;;;;;;5.73;3.60;;;20.90;61.40;;;;;;5035438;28;20512;-50
2023/10/12 02:58:18;;;;;;;5.27;4.13;;;20.90;61.50;;;;;;5037782;28;20538;-50
2023/10/12 03:00:47;;;;;;;4.90;4.40;;;20.90;61.40;;;;;;5030459;28;20458;-51
2023/10/12 03:03:27;;;;;;;5.13;4.57;;;20.90;61.50;;;;;;5037773;28;20956;-50
2023/10/12 03:06:01;;;;;;;4.73;3.47;;;20.90;61.50;;;;;;5038018;28;20466;-51
2023/10/12 03:08:34;;;;;;;4.50;3.50;;;20.90;61.70;;;;;;5034853;28;20436;-50
2023/10/12 03:11:12;;;;;;;4.40;3.73;;;20.90;61.60;;;;;;5031333;28;21317;-50
2023/10/12 03:13:54;;;;;;;8.00;4.87;;;20.90;61.70;;;;;;5030010;28;20542;-51
2023/10/12 03:16:23;;;;;;;4.23;3.70;;;20.90;61.80;;;;;;5033086;28;20498;-51
2023/10/12 03:18:57;;;;;;;5.40;4.17;;;20.90;61.80;;;;;;5028443;28;20455;-50
2023/10/12 03:21:27;;;;;;;4.70;4.23;;;20.90;61.90;;;;;;5033140;28;20475;-51
2023/10/12 03:23:57;;;;;;;4.47;4.10;;;20.90;63.10;;;;;;5036506;28;20479;-50
2023/10/12 03:26:27;;;;;;;6.03;4.13;;;20.90;61.90;;;;;;5038819;28;20474;-50
2023/10/12 03:29:07;;;;;;;6.50;4.13;;;20.90;61.90;;;;;;5035116;28;20436;-51
2023/10/12 03:31:52;;;;;;;5.73;4.50;;;20.90;62.00;;;;;;5034960;28;20480;-50
2023/10/12 03:37:05;;;;;;;5.93;3.87;;;20.90;62.10;;;;;;5032668;28;20496;-51
2023/10/12 03:39:43;;;;;;;5.87;4.20;;;20.90;62.10;;;;;;5037114;28;20451;-50
2023/10/12 03:42:41;;;;;;;5.00;3.87;;;20.90;62.10;;;;;;5033549;28;20485;-51
2023/10/12 03:45:08;;;;;;;5.77;3.33;;;20.90;62.20;;;;;;5035098;28;20464;-51
2023/10/12 03:47:47;;;;;;;3.90;3.27;;;20.90;62.20;;;;;;5021028;28;20471;-52
2023/10/12 03:50:18;;;;;;;5.17;3.70;;;20.80;62.10;;;;;;5025792;28;20419;-52
2023/10/12 03:52:52;;;;;;;5.13;4.03;;;20.80;62.10;;;;;;5021393;28;20540;-51
2023/10/12 03:55:26;;;;;;;5.13;3.70;;;20.80;62.10;;;;;;5024228;28;21272;-50
2023/10/12 03:58:06;;;;;;;4.00;3.37;;;20.90;62.30;;;;;;5024531;28;20498;-50
2023/10/12 04:00:46;;;;;;;4.37;4.00;;;20.80;62.30;;;;;;5038632;28;20463;-49
2023/10/12 04:03:18;;;;;;;4.70;3.97;;;20.80;62.20;;;;;;5007193;28;20448;-49
2023/10/12 04:05:51;;;;;;;5.93;3.83;;;20.80;62.20;;;;;;5024242;28;20448;-51
2023/10/12 04:08:39;;;;;;;5.03;3.90;;;20.80;62.20;;;;;;5021625;28;20478;-50
2023/10/12 04:14:27;;;;;;;6.07;3.90;;;20.80;62.20;;;;;;5011832;28;20539;-50
2023/10/12 04:16:57;;;;;;;4.93;4.20;;;20.80;62.30;;;;;;5021103;28;20475;-50
2023/10/12 04:19:32;;;;;;;8.13;4.33;;;20.80;62.40;;;;;;5008081;28;20864;-51
2023/10/12 04:22:16;;;;;;;5.30;3.70;;;20.80;62.30;;;;;;5021762;28;20478;-51
2023/10/12 04:24:45;;;;;;;4.70;3.90;;;20.80;62.40;;;;;;5023169;28;20509;-50
2023/10/12 04:27:38;;;;;;;6.20;4.27;;;20.80;62.40;;;;;;5024520;28;20499;-51
2023/10/12 04:30:20;;;;;;;5.10;3.50;;;20.80;62.40;;;;;;5021386;28;20517;-51
2023/10/12 04:33:11;;;;;;;5.33;3.67;;;20.90;62.60;;;;;;5022698;28;20539;-50
2023/10/12 04:36:09;;;;;;;5.90;3.60;;;20.80;62.40;;;;;;5023254;28;20754;-51
2023/10/12 04:38:56;;;;;;;5.27;3.50;;;20.80;62.40;;;;;;5021903;28;20440;-50
2023/10/12 04:41:37;;;;;;;3.30;3.00;;;20.80;62.50;;;;;;5024481;28;20562;-50
2023/10/12 04:46:58;;;;;;;9.60;4.00;;;20.80;62.60;;;;;;5023235;28;20499;-51
2023/10/12 04:52:17;;;;;;;4.07;3.43;;;20.80;62.90;;;;;;5021679;28;20569;-49
2023/10/12 04:54:59;;;;;;;4.37;3.30;;;20.80;63.00;;;;;;5025281;28;20467;-50
2023/10/12 04:57:31;;;;;;;3.80;3.47;;;20.80;62.80;;;;;;5023407;28;20557;-50
2023/10/12 05:00:16;;;;;;;6.93;4.60;;;20.80;62.80;;;;;;5022350;28;20547;-51
2023/10/12 05:02:59;;;;;;;8.60;3.73;;;20.80;62.90;;;;;;5041705;28;20831;-49
2023/10/12 05:08:22;;;;;;;3.30;3.00;;;20.80;63.10;;;;;;5034588;28;20538;-50
2023/10/12 05:10:50;;;;;;;4.27;3.70;;;20.80;63.10;;;;;;5042209;28;20526;-51
2023/10/12 05:13:20;;;;;;;4.00;3.60;;;20.80;63.10;;;;;;5037870;28;20852;-51
2023/10/12 05:18:37;;;;;;;4.37;3.97;;;20.80;63.20;;;;;;5022593;28;20440;-51
2023/10/12 05:21:08;;;;;;;4.40;4.00;;;20.80;63.20;;;;;;5023276;28;20463;-51
2023/10/12 05:23:38;;;;;;;6.13;3.83;;;20.80;63.30;;;;;;5020481;28;20452;-51
2023/10/12 05:26:09;;;;;;;4.23;3.63;;;20.80;63.30;;;;;;5025437;28;21001;-51
2023/10/12 05:28:47;;;;;;;4.03;3.43;;;20.80;63.40;;;;;;5021862;28;20537;-51
2023/10/12 05:31:20;;;;;;;3.97;3.67;;;20.80;63.40;;;;;;5027555;28;20525;-51
2023/10/12 05:36:45;;;;;;;5.10;3.67;;;20.80;63.60;;;;;;5027510;28;20479;-51
2023/10/12 05:39:14;;;;;;;5.60;3.90;;;20.70;63.60;;;;;;5031486;28;20468;-51
2023/10/12 05:41:44;;;;;;;5.23;3.27;;;20.70;63.60;;;;;;5030913;28;20470;-49
2023/10/12 05:44:16;;;;;;;5.10;3.73;;;20.70;63.60;;;;;;5024900;28;20479;-51
2023/10/12 05:46:59;;;;;;;4.43;3.50;;;20.70;63.60;;;;;;5028844;28;20584;-53
2023/10/12 05:49:33;;;;;;;4.30;4.00;;;20.70;63.60;;;;;;5030682;28;20923;-49
2023/10/12 05:52:05;;;;;;;3.90;3.50;;;20.70;63.60;;;;;;5023979;28;20515;-51
2023/10/12 05:54:34;;;;;;;3.47;3.17;;;20.70;63.60;;;;;;5025119;28;20520;-52
2023/10/12 05:57:07;;;;;;;5.50;3.60;;;20.70;63.70;;;;;;5023828;28;20459;-51
2023/10/12 05:59:38;;;;;;;5.20;3.77;;;20.70;63.90;;;;;;5035057;28;20440;-51
2023/10/12 06:02:08;;;;;;;6.50;3.47;;;20.70;63.80;;;;;;5033065;28;20479;-50
2023/10/12 06:04:38;;;;;;;4.53;3.60;;;20.70;63.90;;;;;;5011722;28;20840;-50
2023/10/12 06:07:07;;;;;;;6.37;3.70;;;20.70;63.80;;;;;;5033283;28;21015;-50
2023/10/12 06:09:37;;;;;;;4.03;3.63;;;20.70;63.90;;;;;;5023608;28;20555;-50
2023/10/12 06:12:07;;;;;;;3.93;3.57;;;20.70;63.90;;;;;;5035777;28;20537;-50
2023/10/12 06:14:36;;;;;;;3.73;3.43;;;20.70;64.10;;;;;;5034115;28;20974;-49
2023/10/12 06:17:06;;;;;;;4.43;3.60;;;20.70;64.10;;;;;;5027322;28;20457;-49
2023/10/12 06:19:35;;;;;;;8.80;4.97;;;20.70;64.10;;;;;;5030215;28;20798;-51
2023/10/12 06:22:19;;;;;;;6.07;3.90;;;20.70;64.10;;;;;;5027744;28;20559;-51
2023/10/12 06:24:52;;;;;;;3.70;3.37;;;20.70;63.90;;;;;;5050473;28;20991;-49
2023/10/12 06:27:24;;;;;;;6.50;4.27;;;20.70;64.20;;;;;;5030311;28;20981;-50
2023/10/12 06:29:54;;;;;;;4.13;3.73;;;20.70;64.40;;;;;;5023334;28;20464;-50
2023/10/12 06:32:31;;;;;;;3.93;3.47;;;20.70;64.50;;;;;;5030087;28;20481;-50
2023/10/12 06:35:13;;;;;;;4.20;3.43;;;20.70;65.70;;;;;;5032700;28;20828;-51
2023/10/12 06:37:59;;;;;;;4.93;3.80;;;20.70;64.50;;;;;;5022472;28;20947;-50
2023/10/12 06:45:56;;;;;;;4.70;4.30;;;20.70;64.50;;;;;;5022611;28;20865;-51
2023/10/12 06:51:20;;;;;;;6.30;3.60;;;20.70;64.50;;;;;;5095475;27;20598;-49
2023/10/12 06:53:52;;;;;;;3.80;3.50;;;20.70;64.50;;;;;;5064616;28;20859;-50
2023/10/12 06:56:26;;;;;;;3.60;3.07;;;20.60;64.40;;;;;;5047098;28;20479;-51
2023/10/12 06:59:09;;;;;;;4.40;4.00;;;20.70;64.50;;;;;;5080291;28;20516;-51
2023/10/12 07:01:51;;;;;;;4.30;3.40;;;20.60;64.40;;;;;;5060506;28;20489;-51
2023/10/12 07:04:27;;;;;;;3.77;3.43;;;20.60;64.40;;;;;;5064411;28;20459;-51
2023/10/12 07:06:59;;;;;;;3.90;3.47;;;20.60;64.40;;;;;;5057562;28;20551;-50
2023/10/12 07:09:39;;;;;;;4.20;3.47;;;20.60;64.40;;;;;;5047903;28;20451;-51
2023/10/12 07:12:10;;;;;;;4.00;3.60;;;20.60;64.40;;;;;;5060265;28;20983;-50
2023/10/12 07:14:46;;;;;;;3.80;3.40;;;20.60;64.40;;;;;;5061452;28;20450;-50
2023/10/12 07:17:15;;;;;;;5.10;3.83;;;20.60;64.40;;;;;;5058144;28;20482;-51
2023/10/12 07:19:49;;;;;;;4.67;3.43;;;20.60;64.40;;;;;;5058722;28;20789;-51
2023/10/12 07:22:19;;;;;;;5.20;3.87;;;20.60;64.40;;;;;;5075364;28;21127;-51
2023/10/12 07:24:52;;;;;;;3.97;3.40;;;20.60;64.50;;;;;;5046715;28;20561;-51
2023/10/12 07:27:22;;;;;;;3.90;3.50;;;20.60;64.40;;;;;;5063010;28;20509;-50
2023/10/12 07:30:08;;;;;;;5.80;4.53;;;20.60;64.40;;;;;;5058551;28;20482;-51
2023/10/12 07:32:44;;;;;;;4.43;3.97;;;20.60;64.40;;;;;;5041623;28;20980;-51
2023/10/12 07:35:17;;;;;;;5.43;3.90;;;20.60;64.40;;;;;;5026563;28;20998;-51
2023/10/12 07:37:48;;;;;;;4.20;3.73;;;20.60;64.40;;;;;;5037982;28;20450;-51
2023/10/12 07:40:22;;;;;;;4.30;3.90;;;20.60;64.40;;;;;;5043648;28;20420;-51
2023/10/12 07:42:51;;;;;;;5.50;3.80;;;20.60;64.40;;;;;;5071067;28;20454;-51
2023/10/12 07:45:27;;;;;;;5.97;3.97;;;20.60;64.40;;;;;;5072323;28;20491;-51
2023/10/12 07:47:59;;;;;;;4.53;3.80;;;20.60;64.40;;;;;;5076954;28;20437;-51
2023/10/12 07:50:35;;;;;;;3.67;3.30;;;20.60;64.40;;;;;;5064564;28;20876;-50
2023/10/12 07:53:21;;;;;;;5.03;3.00;;;20.60;64.40;;;;;;5075936;28;20446;-51
2023/10/12 07:55:58;;;;;;;4.53;3.97;;;20.60;64.40;;;;;;5079637;28;20967;-51
2023/10/12 07:58:29;;;;;;;3.97;3.57;;;20.60;64.40;;;;;;5062177;28;20457;-51
2023/10/12 08:01:19;;;;;;;5.23;4.30;;;20.60;64.40;;;;;;5055956;28;21025;-49
2023/10/12 08:03:50;;;;;;;6.43;4.80;;;20.50;64.30;;;;;;5050433;28;20454;-51
2023/10/12 08:06:27;;;;;;;3.70;3.40;;;20.60;64.40;;;;;;5046740;28;20516;-51
2023/10/12 08:09:03;;;;;;;3.90;3.20;;;20.50;64.30;;;;;;5049543;28;20482;-50
2023/10/12 08:11:34;;;;;;;4.30;3.70;;;20.50;64.40;;;;;;5054230;28;20469;-51
2023/10/12 08:14:19;;;;;;;4.80;3.70;;;20.50;64.40;;;;;;5064892;28;20469;-51
2023/10/12 08:17:26;;;;;;;5.17;3.73;;;20.50;65.70;;;;;;5054950;28;20549;-51
2023/10/12 08:19:39;;;;;;;4.33;3.50;;;20.50;64.30;;;;;;5060494;28;20962;-50
2023/10/12 08:22:17;;;;;;;4.90;4.03;;;20.50;64.40;;;;;;5059987;28;20513;-51
2023/10/12 08:24:49;;;;;;;4.30;3.30;;;20.60;64.40;;;;;;5044165;28;20465;-51
2023/10/12 08:27:19;;;;;;;4.00;3.60;;;20.50;64.30;;;;;;5044670;28;20509;-51
2023/10/12 08:30:12;;;;;;;3.67;3.37;;;20.60;64.50;;;;;;5044633;28;20530;-51
2023/10/12 08:32:55;;;;;;;4.40;4.00;;;20.50;64.40;;;;;;5062146;28;20458;-51
2023/10/12 08:35:37;;;;;;;5.23;3.93;;;20.50;64.30;;;;;;5063048;28;20982;-52
2023/10/12 08:38:12;;;;;;;5.67;3.90;;;20.50;64.30;;;;;;5060809;28;21006;-52
2023/10/12 08:43:45;;;;;;;5.00;3.80;;;20.50;64.40;;;;;;5046270;28;20439;-51
2023/10/12 08:46:41;;;;;;;5.73;3.90;;;20.50;64.40;;;;;;5043065;28;20537;-51
2023/10/12 08:52:07;;;;;;;5.23;3.67;;;20.50;64.70;;;;;;5029626;28;20476;-51
2023/10/12 08:54:38;;;;;;;4.60;3.73;;;20.50;64.70;;;;;;5047991;28;20439;-52
2023/10/12 08:57:18;;;;;;;4.77;4.03;;;20.50;64.30;;;;;;5034255;28;20506;-50
2023/10/12 09:00:01;;;;;;;4.60;3.63;;;20.50;64.30;;;;;;5048136;28;20450;-49
2023/10/12 09:02:29;;;;;;;4.73;3.83;;;20.50;64.30;;;;;;5055092;28;20482;-50
2023/10/12 09:04:59;;;;;;;4.57;3.70;;;20.50;64.40;;;;;;5031926;28;20467;-50
2023/10/12 09:07:40;;;;;;;4.90;3.53;;;20.50;64.40;;;;;;5042486;28;20514;-51
2023/10/12 09:10:28;;;;;;;4.70;3.70;;;20.50;64.30;;;;;;5058196;28;20959;-50
2023/10/12 09:13:01;;;;;;;3.80;3.20;;;20.50;64.40;;;;;;5024316;28;20519;-52
2023/10/12 09:15:32;;;;;;;6.57;3.30;;;20.50;64.40;;;;;;5042241;28;20551;-51
2023/10/12 09:18:09;;;;;;;7.53;3.80;;;20.50;64.40;;;;;;5041839;28;20448;-50
2023/10/12 09:20:40;;;;;;;4.60;4.30;;;20.50;64.30;;;;;;5014123;28;20481;-51
2023/10/12 09:23:14;;;;;;;7.40;4.33;;;20.50;64.30;;;;;;5044943;28;20455;-50
2023/10/12 09:26:15;;;;;;;6.97;4.50;;;20.50;64.60;;;;;;5041688;28;20446;-50
2023/10/12 09:29:04;;;;;;;4.30;3.90;;;20.50;64.90;;;;;;5044458;28;20443;-51
2023/10/12 09:31:54;;;;;;;5.03;3.60;;;20.50;64.50;;;;;;5034702;28;20475;-50
2023/10/12 09:37:16;;;;;;;7.00;5.47;;;20.50;64.40;;;;;;5014939;28;20475;-49
2023/10/12 09:39:46;;;;;;;4.00;3.60;;;20.50;65.00;;;;;;5020287;28;20814;-51
2023/10/12 09:42:30;;;;;;;5.40;4.90;;;20.50;64.70;;;;;;5024619;28;20548;-51
2023/10/12 09:45:05;;;;;;;3.67;3.23;;;20.50;64.80;;;;;;5023653;28;20895;-50
2023/10/12 09:47:50;;;;;;;4.40;3.30;;;20.50;64.80;;;;;;5050837;28;20466;-51
2023/10/12 09:50:27;;;;;;;4.67;3.77;;;20.50;64.90;;;;;;5059875;28;20481;-51
2023/10/12 09:53:12;;;;;;;4.03;3.60;;;20.50;65.20;;;;;;5059245;28;20438;-50
2023/10/12 09:55:54;;;;;;;4.80;3.17;;;20.50;65.00;;;;;;5045074;28;20459;-50
2023/10/12 09:58:23;;;;;;;4.00;3.57;;;20.50;65.20;;;;;;5060544;28;20427;-51
2023/10/12 10:01:01;;;;;;;4.13;3.57;;;20.50;65.20;;;;;;5042128;28;20553;-51
2023/10/12 10:03:40;;;;;;;3.73;3.33;;;20.50;65.40;;;;;;5060282;28;20467;-51
2023/10/12 10:06:28;;;;;;;5.43;3.77;;;20.50;65.50;;;;;;5042533;28;20505;-51
2023/10/12 10:09:16;;;;;;;5.10;3.90;;;20.50;65.40;;;;;;5064081;28;20430;-50
2023/10/12 10:11:46;;;;;;;4.57;3.80;;;20.50;65.40;;;;;;5060064;28;20570;-49
2023/10/12 10:14:20;;;;;;;5.83;3.77;;;20.40;65.10;;;;;;5061327;28;20451;-50
2023/10/12 10:16:59;;;;;;;4.43;3.63;;;20.50;65.30;;;;;;5040412;28;20485;-49
2023/10/12 10:19:30;;;;;;;4.13;3.73;;;20.40;66.30;;;;;;5060066;28;20446;-52
2023/10/12 10:22:06;;;;;;;6.97;4.60;;;20.50;66.10;;;;;;5055808;28;20931;-49
2023/10/12 10:24:46;;;;;;;3.57;3.03;;;20.40;65.20;;;;;;5043085;28;21139;-50
2023/10/12 10:27:15;;;;;;;5.30;3.97;;;20.40;65.10;;;;;;5059917;28;20471;-50
2023/10/12 10:29:52;;;;;;;4.93;4.40;;;20.50;65.40;;;;;;5059385;28;20446;-48
2023/10/12 10:32:31;;;;;;;5.73;3.30;;;20.40;66.90;;;;;;5058301;28;20474;-51
2023/10/12 10:35:04;;;;;;;4.90;4.30;;;20.50;65.60;;;;;;5059258;28;20454;-51
2023/10/12 10:37:47;;;;;;;5.13;3.93;;;20.40;65.60;;;;;;5058990;28;20482;-50
2023/10/12 10:40:19;;;;;;;5.10;4.17;;;20.40;65.80;;;;;;5061610;28;20455;-50
2023/10/12 10:42:58;;;;;;;5.20;3.73;;;20.50;65.70;;;;;;5040753;28;20997;-50
2023/10/12 10:45:27;;;;;;;4.10;3.67;;;20.40;66.10;;;;;;5042437;28;20486;-50
2023/10/12 10:47:57;;;;;;;4.70;3.80;;;20.40;65.60;;;;;;5057221;28;20443;-50
2023/10/12 10:50:49;;;;;;;5.50;3.90;;;20.40;65.40;;;;;;5043918;28;21010;-50
2023/10/12 10:53:19;;;;;;;3.83;3.47;;;20.40;65.60;;;;;;5055433;28;20446;-51
2023/10/12 10:55:50;;;;;;;4.13;3.20;;;20.40;65.80;;;;;;5061219;28;20850;-51
2023/10/12 10:58:24;;;;;;;4.40;3.53;;;20.40;65.70;;;;;;5061353;28;20431;-51
2023/10/12 11:00:57;;;;;;;4.40;3.10;;;20.40;65.80;;;;;;5059189;28;20493;-51
2023/10/12 11:03:32;;;;;;;4.10;3.60;;;20.50;65.40;;;;;;5042085;28;20443;-51
2023/10/12 11:06:01;;;;;;;3.27;2.97;;;20.40;65.30;;;;;;5054089;28;20427;-50
2023/10/12 11:08:32;;;;;;;4.23;3.83;;;20.40;65.30;;;;;;5054620;28;20451;-50
2023/10/12 11:11:25;;;;;;;3.70;3.30;;;20.40;65.40;;;;;;5060493;28;20427;-50
2023/10/12 11:13:55;;;;;;;3.90;3.47;;;20.40;65.20;;;;;;5060499;28;20542;-49
2023/10/12 11:16:28;;;;;;;4.03;3.67;;;20.40;65.20;;;;;;5047554;28;20475;-51
2023/10/12 11:19:00;;;;;;;3.40;3.10;;;20.40;65.20;;;;;;5061379;28;20427;-51
2023/10/12 11:21:29;;;;;;;3.53;3.23;;;20.40;64.90;;;;;;5044431;28;21019;-51
2023/10/12 11:24:00;;;;;;;3.87;3.20;;;20.40;65.00;;;;;;5060472;28;20482;-51
2023/10/12 11:26:29;;;;;;;3.30;3.00;;;20.40;65.10;;;;;;5063065;28;20808;-51
2023/10/12 11:29:06;;;;;;;3.97;3.47;;;20.40;65.00;;;;;;5059813;28;20845;-51
2023/10/12 11:31:34;;;;;;;4.37;3.90;;;20.40;65.10;;;;;;5045717;28;20474;-50
2023/10/12 11:34:07;;;;;;;4.90;3.30;;;20.40;65.00;;;;;;5045908;28;20455;-51
2023/10/12 11:36:36;;;;;;;4.50;3.50;;;20.40;64.90;;;;;;5056861;28;20983;-50
2023/10/12 11:39:16;;;;;;;3.50;3.20;;;20.50;65.20;;;;;;5060338;28;20466;-50
2023/10/12 11:42:03;;;;;;;5.70;3.40;;;20.40;65.20;;;;;;5065360;28;20454;-49
2023/10/12 11:44:32;;;;;;;4.40;3.30;;;20.40;64.90;;;;;;5058802;28;20481;-51
2023/10/12 11:47:02;;;;;;;4.00;3.27;;;20.40;65.00;;;;;;5058725;28;20838;-50
2023/10/12 11:49:47;;;;;;;4.10;2.93;;;20.40;65.20;;;;;;5062773;28;20439;-50
2023/10/12 11:52:29;;;;;;;4.67;3.80;;;20.40;65.00;;;;;;5063996;28;20907;-51
2023/10/12 11:55:06;;;;;;;3.30;2.67;;;20.40;65.20;;;;;;5071026;28;20458;-51
2023/10/12 11:57:36;;;;;;;4.03;3.63;;;20.40;65.10;;;;;;5062749;28;20765;-49
2023/10/12 12:00:20;;;;;;;4.47;3.60;;;20.40;65.20;;;;;;5050010;28;20435;-50
2023/10/12 12:02:52;;;;;;;5.43;3.70;;;20.40;65.10;;;;;;5064980;28;20910;-51
2023/10/12 12:05:23;;;;;;;5.40;3.90;;;20.40;65.20;;;;;;5062728;28;20474;-51
2023/10/12 12:07:52;;;;;;;4.83;3.90;;;20.40;65.50;;;;;;5061965;28;20610;-50
2023/10/12 12:10:26;;;;;;;3.40;3.00;;;20.40;65.40;;;;;;5064431;28;20450;-50
2023/10/12 12:12:57;;;;;;;3.83;3.43;;;20.40;65.10;;;;;;5065986;28;20474;-50
2023/10/12 12:15:26;;;;;;;4.30;3.77;;;20.40;65.20;;;;;;5062088;28;20554;-51
2023/10/12 12:17:54;;;;;;;3.80;3.10;;;20.40;66.50;;;;;;5049632;28;20815;-49
2023/10/12 12:20:25;;;;;;;3.90;3.50;;;20.40;65.30;;;;;;5064517;28;20509;-51
2023/10/12 12:22:57;;;;;;;3.73;3.33;;;20.40;65.30;;;;;;5048419;28;20451;-50
2023/10/12 12:25:33;;;;;;;4.30;3.70;;;20.40;65.60;;;;;;5061998;28;20927;-51
2023/10/12 12:28:04;;;;;;;5.97;3.50;;;20.40;65.40;;;;;;5064677;28;20446;-51
2023/10/12 12:30:39;;;;;;;6.33;3.37;;;20.40;65.40;;;;;;5066509;28;20496;-50
2023/10/12 12:33:15;;;;;;;8.73;4.00;;;20.40;65.50;;;;;;5047005;28;20463;-50
2023/10/12 12:35:47;;;;;;;4.90;3.73;;;20.30;65.30;;;;;;5065505;28;20485;-50
2023/10/12 12:38:33;;;;;;;5.17;3.90;;;20.40;66.70;;;;;;5056570;28;20483;-49
2023/10/12 12:41:05;;;;;;;4.30;3.60;;;20.30;65.50;;;;;;5064309;28;20458;-51
2023/10/12 12:43:37;;;;;;;4.70;3.77;;;20.30;65.50;;;;;;5063493;28;20929;-51
2023/10/12 12:46:06;;;;;;;4.60;4.20;;;20.30;65.70;;;;;;5064353;28;20469;-50
2023/10/12 12:48:34;;;;;;;4.90;3.70;;;20.30;65.80;;;;;;5063524;28;20938;-51
2023/10/12 12:51:12;;;;;;;4.53;3.63;;;20.30;66.10;;;;;;5057503;28;20475;-51
2023/10/12 12:53:40;;;;;;;4.00;3.47;;;20.30;66.10;;;;;;5060459;28;20473;-51
2023/10/12 12:56:10;;;;;;;4.43;3.57;;;20.30;66.30;;;;;;5058100;28;20907;-51
2023/10/12 12:58:46;;;;;;;4.00;3.50;;;20.30;66.30;;;;;;5052252;28;20434;-51
2023/10/12 13:01:16;;;;;;;4.67;4.07;;;20.30;66.40;;;;;;5058530;28;21002;-50
2023/10/12 13:03:44;;;;;;;4.17;3.70;;;20.30;67.00;;;;;;5044927;28;20512;-51
2023/10/12 13:06:16;;;;;;;3.87;3.50;;;20.30;66.60;;;;;;5062743;28;21075;-50
2023/10/12 13:08:48;;;;;;;4.77;4.23;;;20.30;66.40;;;;;;5064175;28;20993;-49
2023/10/12 13:11:19;;;;;;;3.60;3.30;;;20.30;66.50;;;;;;5061963;28;20503;-50
2023/10/12 13:13:48;;;;;;;5.73;3.93;;;20.30;66.90;;;;;;5060303;28;20924;-50
2023/10/12 13:16:17;;;;;;;4.53;3.10;;;20.30;67.00;;;;;;5047210;28;20509;-49
2023/10/12 13:18:47;;;;;;;4.90;3.60;;;20.30;66.90;;;;;;5056292;28;20435;-50
2023/10/12 13:21:22;;;;;;;4.50;3.67;;;20.30;67.00;;;;;;5053296;28;20550;-50
2023/10/12 13:23:51;;;;;;;4.00;3.60;;;20.30;67.20;;;;;;5058739;28;20459;-50
2023/10/12 13:26:22;;;;;;;4.30;3.83;;;20.30;67.20;;;;;;5059913;28;20562;-51
2023/10/12 13:28:51;;;;;;;4.20;3.80;;;20.30;67.10;;;;;;5061733;28;20447;-50
2023/10/12 13:31:23;;;;;;;3.90;3.60;;;20.30;67.20;;;;;;5060737;28;20475;-50
2023/10/12 13:33:51;;;;;;;5.53;4.17;;;20.30;66.90;;;;;;5054844;28;20578;-51
2023/10/12 13:36:21;;;;;;;4.10;3.70;;;20.30;67.10;;;;;;5043997;28;20459;-50
2023/10/12 13:38:50;;;;;;;4.50;4.10;;;20.30;67.10;;;;;;5056417;28;20459;-50
2023/10/12 13:41:20;;;;;;;4.07;3.00;;;20.30;67.40;;;;;;5046325;28;20459;-50
2023/10/12 13:43:49;;;;;;;3.13;2.83;;;20.30;67.30;;;;;;5059332;28;20455;-51
2023/10/12 13:46:18;;;;;;;4.70;3.33;;;20.30;67.60;;;;;;5040987;28;20478;-53
2023/10/12 13:48:49;;;;;;;4.30;3.37;;;20.30;67.20;;;;;;5055560;28;20443;-50
2023/10/12 13:51:21;;;;;;;3.93;3.13;;;20.20;67.10;;;;;;5065997;28;20442;-50
2023/10/12 13:53:51;;;;;;;8.57;3.90;;;20.20;67.10;;;;;;5061587;28;20548;-51
2023/10/12 13:56:23;;;;;;;4.80;3.30;;;20.20;67.60;;;;;;5067974;28;20454;-51
2023/10/12 13:58:57;;;;;;;3.23;2.87;;;20.30;67.80;;;;;;5068786;28;20517;-50
2023/10/12 14:01:33;;;;;;;3.77;3.43;;;20.30;67.50;;;;;;5047236;28;20480;-51
2023/10/12 14:04:02;;;;;;;4.00;3.70;;;20.30;68.10;;;;;;5064531;28;20553;-51
2023/10/12 14:06:30;;;;;;;3.93;3.53;;;20.30;67.80;;;;;;5057686;28;20493;-49